sensor_id;sensor_type;location;lat;lon;timestamp;pressure;altitude;pressure_sealevel;temperature;humidity
57600;BME280;43426;43.594;24.334;2023-04-26T00:02:06;100134.28;;;8.46;100.00
57600;BME280;43426;43.594;24.334;2023-04-26T00:04:31;100130.22;;;8.42;100.00
57600;BME280;43426;43.594;24.334;2023-04-26T00:06:58;100145.34;;;8.43;100.00
57600;BME280;43426;43.594;24.334;2023-04-26T00:09:27;100155.47;;;8.49;100.00
57600;BME280;43426;43.594;24.334;2023-04-26T00:11:53;100146.06;;;8.45;100.00
57600;BME280;43426;43.594;24.334;2023-04-26T00:14:18;100125.53;;;8.35;100.00
57600;BME280;43426;43.594;24.334;2023-04-26T00:16:44;100150.72;;;8.43;100.00
57600;BME280;43426;43.594;24.334;2023-04-26T00:19:09;100120.56;;;8.16;100.00
57600;BME280;43426;43.594;24.334;2023-04-26T00:21:36;100141.69;;;8.27;100.00
57600;BME280;43426;43.594;24.334;2023-04-26T00:24:01;100096.38;;;7.99;100.00
57600;BME280;43426;43.594;24.334;2023-04-26T00:26:27;100147.41;;;8.24;100.00
57600;BME280;43426;43.594;24.334;2023-04-26T00:28:52;100115.53;;;8.13;100.00
57600;BME280;43426;43.594;24.334;2023-04-26T00:31:17;100128.09;;;8.12;100.00
57600;BME280;43426;43.594;24.334;2023-04-26T00:33:43;100134.66;;;8.10;100.00
57600;BME280;43426;43.594;24.334;2023-04-26T00:36:09;100108.16;;;7.90;100.00
57600;BME280;43426;43.594;24.334;2023-04-26T00:38:35;100127.28;;;8.04;100.00
57600;BME280;43426;43.594;24.334;2023-04-26T00:41:01;100129.28;;;8.01;100.00
57600;BME280;43426;43.594;24.334;2023-04-26T00:43:26;100118.72;;;8.00;100.00
57600;BME280;43426;43.594;24.334;2023-04-26T00:45:52;100099.59;;;7.87;100.00
57600;BME280;43426;43.594;24.334;2023-04-26T00:48:17;100093.72;;;7.83;100.00
57600;BME280;43426;43.594;24.334;2023-04-26T00:50:45;100124.25;;;7.98;100.00
57600;BME280;43426;43.594;24.334;2023-04-26T00:53:13;100107.66;;;7.95;100.00
57600;BME280;43426;43.594;24.334;2023-04-26T00:55:40;100111.69;;;7.99;100.00
57600;BME280;43426;43.594;24.334;2023-04-26T00:58:06;100110.34;;;8.03;100.00
57600;BME280;43426;43.594;24.334;2023-04-26T01:00:31;100088.34;;;7.83;100.00
57600;BME280;43426;43.594;24.334;2023-04-26T01:02:57;100084.31;;;7.79;100.00
57600;BME280;43426;43.594;24.334;2023-04-26T01:05:23;100093.22;;;7.79;100.00
57600;BME280;43426;43.594;24.334;2023-04-26T01:07:48;100101.94;;;7.98;100.00
57600;BME280;43426;43.594;24.334;2023-04-26T01:10:14;100112.50;;;7.99;100.00
57600;BME280;43426;43.594;24.334;2023-04-26T01:12:41;100081.63;;;7.79;100.00
57600;BME280;43426;43.594;24.334;2023-04-26T01:15:07;100096.91;;;7.95;100.00
57600;BME280;43426;43.594;24.334;2023-04-26T01:17:33;100066.03;;;7.74;100.00
57600;BME280;43426;43.594;24.334;2023-04-26T01:19:59;100075.63;;;7.69;100.00
57600;BME280;43426;43.594;24.334;2023-04-26T01:22:24;100071.22;;;7.84;100.00
57600;BME280;43426;43.594;24.334;2023-04-26T01:24:50;100085.50;;;7.76;100.00
57600;BME280;43426;43.594;24.334;2023-04-26T01:27:17;100092.38;;;7.79;100.00
57600;BME280;43426;43.594;24.334;2023-04-26T01:29:42;100063.84;;;7.61;100.00
57600;BME280;43426;43.594;24.334;2023-04-26T01:32:08;100075.94;;;7.74;100.00
57600;BME280;43426;43.594;24.334;2023-04-26T01:34:33;100055.66;;;7.63;100.00
57600;BME280;43426;43.594;24.334;2023-04-26T01:36:59;100049.44;;;7.62;100.00
57600;BME280;43426;43.594;24.334;2023-04-26T01:39:25;100079.94;;;7.78;100.00
57600;BME280;43426;43.594;24.334;2023-04-26T01:41:51;100070.91;;;7.71;100.00
57600;BME280;43426;43.594;24.334;2023-04-26T01:44:19;100038.34;;;7.49;100.00
57600;BME280;43426;43.594;24.334;2023-04-26T01:46:45;100058.00;;;7.58;100.00
57600;BME280;43426;43.594;24.334;2023-04-26T01:49:10;100072.41;;;7.65;100.00
57600;BME280;43426;43.594;24.334;2023-04-26T01:51:36;100078.28;;;7.85;100.00
57600;BME280;43426;43.594;24.334;2023-04-26T01:54:01;100072.22;;;7.99;100.00
57600;BME280;43426;43.594;24.334;2023-04-26T01:56:27;100068.81;;;8.14;99.99
57600;BME280;43426;43.594;24.334;2023-04-26T01:58:52;100037.34;;;7.75;100.00
57600;BME280;43426;43.594;24.334;2023-04-26T02:01:20;100061.31;;;7.84;100.00
57600;BME280;43426;43.594;24.334;2023-04-26T02:03:46;100035.81;;;7.64;100.00
57600;BME280;43426;43.594;24.334;2023-04-26T02:06:11;100059.44;;;8.01;100.00
57600;BME280;43426;43.594;24.334;2023-04-26T02:08:36;100053.75;;;8.05;100.00
57600;BME280;43426;43.594;24.334;2023-04-26T02:11:02;100037.94;;;8.01;99.66
57600;BME280;43426;43.594;24.334;2023-04-26T02:13:27;100039.00;;;7.84;100.00
57600;BME280;43426;43.594;24.334;2023-04-26T02:15:53;100035.13;;;7.87;100.00
57600;BME280;43426;43.594;24.334;2023-04-26T02:18:18;100063.47;;;7.97;100.00
57600;BME280;43426;43.594;24.334;2023-04-26T02:20:46;100064.69;;;7.95;100.00
57600;BME280;43426;43.594;24.334;2023-04-26T02:23:11;100065.34;;;7.89;100.00
57600;BME280;43426;43.594;24.334;2023-04-26T02:25:37;100033.28;;;7.79;100.00
57600;BME280;43426;43.594;24.334;2023-04-26T02:28:04;100041.38;;;7.71;100.00
57600;BME280;43426;43.594;24.334;2023-04-26T02:30:30;100028.41;;;7.99;98.79
57600;BME280;43426;43.594;24.334;2023-04-26T02:32:56;100057.28;;;7.89;99.54
57600;BME280;43426;43.594;24.334;2023-04-26T02:35:22;100026.13;;;7.46;100.00
57600;BME280;43426;43.594;24.334;2023-04-26T02:37:48;100057.66;;;7.61;100.00
57600;BME280;43426;43.594;24.334;2023-04-26T02:40:14;100071.06;;;7.44;100.00
57600;BME280;43426;43.594;24.334;2023-04-26T02:42:40;100045.38;;;7.17;100.00
57600;BME280;43426;43.594;24.334;2023-04-26T02:45:06;100083.13;;;7.32;100.00
57600;BME280;43426;43.594;24.334;2023-04-26T02:47:32;100075.59;;;7.27;100.00
57600;BME280;43426;43.594;24.334;2023-04-26T02:50:01;100059.81;;;7.16;100.00
57600;BME280;43426;43.594;24.334;2023-04-26T02:52:26;100049.28;;;7.23;100.00
57600;BME280;43426;43.594;24.334;2023-04-26T02:54:51;100074.75;;;7.35;100.00
57600;BME280;43426;43.594;24.334;2023-04-26T02:57:17;100084.00;;;7.41;100.00
57600;BME280;43426;43.594;24.334;2023-04-26T02:59:42;100094.06;;;7.55;100.00
57600;BME280;43426;43.594;24.334;2023-04-26T03:02:08;100085.31;;;7.70;100.00
57600;BME280;43426;43.594;24.334;2023-04-26T03:04:33;100071.22;;;7.84;99.99
57600;BME280;43426;43.594;24.334;2023-04-26T03:07:01;100069.19;;;7.94;98.93
57600;BME280;43426;43.594;24.334;2023-04-26T03:09:27;100101.22;;;8.21;98.15
57600;BME280;43426;43.594;24.334;2023-04-26T03:11:52;100079.75;;;8.04;97.58
57600;BME280;43426;43.594;24.334;2023-04-26T03:14:18;100074.19;;;8.14;97.28
57600;BME280;43426;43.594;24.334;2023-04-26T03:16:43;100081.06;;;8.16;96.90
57600;BME280;43426;43.594;24.334;2023-04-26T03:19:09;100093.47;;;8.26;96.97
57600;BME280;43426;43.594;24.334;2023-04-26T03:21:34;100107.72;;;8.34;96.37
57600;BME280;43426;43.594;24.334;2023-04-26T03:24:00;100104.22;;;8.26;96.43
57600;BME280;43426;43.594;24.334;2023-04-26T03:26:25;100071.19;;;8.09;96.47
57600;BME280;43426;43.594;24.334;2023-04-26T03:28:51;100105.38;;;8.31;96.05
57600;BME280;43426;43.594;24.334;2023-04-26T03:31:16;100069.34;;;8.01;96.41
57600;BME280;43426;43.594;24.334;2023-04-26T03:33:42;100107.13;;;8.16;96.85
57600;BME280;43426;43.594;24.334;2023-04-26T03:36:07;100082.13;;;7.99;97.24
57600;BME280;43426;43.594;24.334;2023-04-26T03:38:33;100101.75;;;8.08;97.12
57600;BME280;43426;43.594;24.334;2023-04-26T03:40:58;100046.06;;;7.77;97.43
57600;BME280;43426;43.594;24.334;2023-04-26T03:43:24;100084.50;;;7.86;97.75
57600;BME280;43426;43.594;24.334;2023-04-26T03:45:50;100102.09;;;8.05;97.70
57600;BME280;43426;43.594;24.334;2023-04-26T03:48:15;100069.53;;;7.91;97.35
57600;BME280;43426;43.594;24.334;2023-04-26T03:50:41;100051.09;;;7.80;97.12
57600;BME280;43426;43.594;24.334;2023-04-26T03:53:09;100049.75;;;7.84;97.07
57600;BME280;43426;43.594;24.334;2023-04-26T03:55:35;100064.16;;;7.99;97.38
57600;BME280;43426;43.594;24.334;2023-04-26T03:58:01;100079.69;;;8.29;96.66
57600;BME280;43426;43.594;24.334;2023-04-26T04:00:27;100083.34;;;8.52;95.30
57600;BME280;43426;43.594;24.334;2023-04-26T04:02:53;100062.72;;;8.45;94.51
57600;BME280;43426;43.594;24.334;2023-04-26T04:05:18;100084.75;;;8.80;94.33
57600;BME280;43426;43.594;24.334;2023-04-26T04:07:44;100077.28;;;8.90;93.29
57600;BME280;43426;43.594;24.334;2023-04-26T04:10:09;100047.19;;;9.18;90.56
57600;BME280;43426;43.594;24.334;2023-04-26T04:12:35;100086.72;;;9.41;89.89
57600;BME280;43426;43.594;24.334;2023-04-26T04:15:01;100116.91;;;9.36;89.90
57600;BME280;43426;43.594;24.334;2023-04-26T04:17:27;100113.44;;;9.19;90.57
57600;BME280;43426;43.594;24.334;2023-04-26T04:19:52;100122.41;;;9.11;91.20
57600;BME280;43426;43.594;24.334;2023-04-26T04:22:18;100099.13;;;8.95;91.61
57600;BME280;43426;43.594;24.334;2023-04-26T04:24:43;100102.22;;;9.15;91.14
57600;BME280;43426;43.594;24.334;2023-04-26T04:27:09;100126.06;;;9.50;90.65
57600;BME280;43426;43.594;24.334;2023-04-26T04:29:34;100127.47;;;9.84;88.97
57600;BME280;43426;43.594;24.334;2023-04-26T04:32:02;100119.00;;;9.87;88.88
57600;BME280;43426;43.594;24.334;2023-04-26T04:34:27;100109.09;;;9.87;88.60
57600;BME280;43426;43.594;24.334;2023-04-26T04:36:53;100109.28;;;10.01;87.73
57600;BME280;43426;43.594;24.334;2023-04-26T04:39:19;100125.03;;;10.12;87.98
57600;BME280;43426;43.594;24.334;2023-04-26T04:41:44;100137.06;;;10.39;87.37
57600;BME280;43426;43.594;24.334;2023-04-26T04:44:19;100136.59;;;10.66;85.97
57600;BME280;43426;43.594;24.334;2023-04-26T04:46:44;100110.38;;;10.75;86.09
57600;BME280;43426;43.594;24.334;2023-04-26T04:49:11;100099.50;;;11.04;82.75
57600;BME280;43426;43.594;24.334;2023-04-26T04:51:40;100114.97;;;11.11;83.16
57600;BME280;43426;43.594;24.334;2023-04-26T04:54:16;100122.41;;;11.45;82.31
57600;BME280;43426;43.594;24.334;2023-04-26T04:56:43;100130.31;;;11.47;82.46
57600;BME280;43426;43.594;24.334;2023-04-26T04:59:09;100103.94;;;11.49;81.08
57600;BME280;43426;43.594;24.334;2023-04-26T05:01:34;100119.81;;;11.80;80.68
57600;BME280;43426;43.594;24.334;2023-04-26T05:04:01;100115.66;;;11.99;80.14
57600;BME280;43426;43.594;24.334;2023-04-26T05:06:27;100126.75;;;12.39;79.19
57600;BME280;43426;43.594;24.334;2023-04-26T05:08:53;100125.03;;;12.67;76.03
57600;BME280;43426;43.594;24.334;2023-04-26T05:11:19;100095.25;;;12.60;75.20
57600;BME280;43426;43.594;24.334;2023-04-26T05:13:45;100124.75;;;12.55;76.42
57600;BME280;43426;43.594;24.334;2023-04-26T05:16:11;100121.25;;;12.61;77.49
57600;BME280;43426;43.594;24.334;2023-04-26T05:18:37;100118.38;;;12.69;76.47
57600;BME280;43426;43.594;24.334;2023-04-26T05:21:02;100129.50;;;12.88;76.95
57600;BME280;43426;43.594;24.334;2023-04-26T05:23:28;100125.13;;;12.87;75.92
57600;BME280;43426;43.594;24.334;2023-04-26T05:25:53;100124.16;;;13.08;76.60
57600;BME280;43426;43.594;24.334;2023-04-26T05:28:19;100120.09;;;13.32;76.07
57600;BME280;43426;43.594;24.334;2023-04-26T05:30:45;100124.53;;;13.53;74.12
57600;BME280;43426;43.594;24.334;2023-04-26T05:33:10;100119.53;;;13.70;74.70
57600;BME280;43426;43.594;24.334;2023-04-26T05:35:36;100095.56;;;13.94;74.35
57600;BME280;43426;43.594;24.334;2023-04-26T05:38:01;100125.38;;;14.34;74.05
57600;BME280;43426;43.594;24.334;2023-04-26T05:40:26;100100.78;;;14.16;70.92
57600;BME280;43426;43.594;24.334;2023-04-26T05:42:52;100121.44;;;14.17;69.93
57600;BME280;43426;43.594;24.334;2023-04-26T05:45:17;100106.19;;;14.02;71.52
57600;BME280;43426;43.594;24.334;2023-04-26T05:47:43;100125.59;;;14.33;71.30
57600;BME280;43426;43.594;24.334;2023-04-26T05:50:08;100135.78;;;14.51;69.37
57600;BME280;43426;43.594;24.334;2023-04-26T05:52:34;100147.19;;;14.93;67.85
57600;BME280;43426;43.594;24.334;2023-04-26T05:54:59;100128.25;;;14.66;66.88
57600;BME280;43426;43.594;24.334;2023-04-26T05:57:28;100153.72;;;14.78;65.86
57600;BME280;43426;43.594;24.334;2023-04-26T05:59:53;100123.28;;;14.50;66.81
57600;BME280;43426;43.594;24.334;2023-04-26T06:02:19;100129.53;;;14.50;65.87
57600;BME280;43426;43.594;24.334;2023-04-26T06:04:44;100152.88;;;14.58;66.03
57600;BME280;43426;43.594;24.334;2023-04-26T06:07:10;100141.38;;;14.76;64.48
57600;BME280;43426;43.594;24.334;2023-04-26T06:09:36;100149.72;;;14.81;65.60
57600;BME280;43426;43.594;24.334;2023-04-26T06:12:01;100147.22;;;14.86;65.40
57600;BME280;43426;43.594;24.334;2023-04-26T06:14:28;100144.88;;;14.96;66.72
57600;BME280;43426;43.594;24.334;2023-04-26T06:16:53;100156.72;;;15.15;64.45
57600;BME280;43426;43.594;24.334;2023-04-26T06:19:18;100145.00;;;15.22;65.51
57600;BME280;43426;43.594;24.334;2023-04-26T06:21:44;100161.31;;;15.22;62.83
57600;BME280;43426;43.594;24.334;2023-04-26T06:24:09;100115.22;;;14.88;65.75
57600;BME280;43426;43.594;24.334;2023-04-26T06:26:34;100161.38;;;15.47;64.98
57600;BME280;43426;43.594;24.334;2023-04-26T06:29:00;100170.81;;;15.38;63.76
57600;BME280;43426;43.594;24.334;2023-04-26T06:31:25;100174.34;;;15.45;63.87
57600;BME280;43426;43.594;24.334;2023-04-26T06:33:50;100148.31;;;15.24;64.05
57600;BME280;43426;43.594;24.334;2023-04-26T06:36:16;100166.50;;;15.30;62.80
57600;BME280;43426;43.594;24.334;2023-04-26T06:38:41;100139.72;;;14.61;65.38
57600;BME280;43426;43.594;24.334;2023-04-26T06:41:06;100169.41;;;14.70;65.91
57600;BME280;43426;43.594;24.334;2023-04-26T06:43:32;100147.28;;;14.59;65.81
57600;BME280;43426;43.594;24.334;2023-04-26T06:45:57;100168.72;;;14.94;64.95
57600;BME280;43426;43.594;24.334;2023-04-26T06:48:23;100167.38;;;15.17;65.25
57600;BME280;43426;43.594;24.334;2023-04-26T06:50:48;100172.28;;;15.40;62.41
57600;BME280;43426;43.594;24.334;2023-04-26T06:53:14;100160.16;;;15.36;61.65
57600;BME280;43426;43.594;24.334;2023-04-26T06:55:39;100171.25;;;15.41;62.95
57600;BME280;43426;43.594;24.334;2023-04-26T06:58:04;100162.25;;;14.95;61.85
57600;BME280;43426;43.594;24.334;2023-04-26T07:00:30;100180.81;;;15.05;62.68
57600;BME280;43426;43.594;24.334;2023-04-26T07:02:55;100162.00;;;15.04;63.62
57600;BME280;43426;43.594;24.334;2023-04-26T07:05:21;100195.56;;;15.23;63.21
57600;BME280;43426;43.594;24.334;2023-04-26T07:07:46;100170.72;;;15.19;61.28
57600;BME280;43426;43.594;24.334;2023-04-26T07:10:12;100202.09;;;15.60;62.06
57600;BME280;43426;43.594;24.334;2023-04-26T07:12:38;100155.06;;;15.53;62.43
57600;BME280;43426;43.594;24.334;2023-04-26T07:15:03;100193.03;;;15.80;60.95
57600;BME280;43426;43.594;24.334;2023-04-26T07:17:31;100185.91;;;15.72;62.56
57600;BME280;43426;43.594;24.334;2023-04-26T07:19:57;100197.06;;;15.96;60.09
57600;BME280;43426;43.594;24.334;2023-04-26T07:22:22;100199.72;;;15.71;62.68
57600;BME280;43426;43.594;24.334;2023-04-26T07:24:47;100178.75;;;15.39;61.20
57600;BME280;43426;43.594;24.334;2023-04-26T07:27:13;100188.19;;;15.37;61.72
57600;BME280;43426;43.594;24.334;2023-04-26T07:29:38;100146.56;;;15.43;64.00
57600;BME280;43426;43.594;24.334;2023-04-26T07:32:03;100200.31;;;15.79;61.09
57600;BME280;43426;43.594;24.334;2023-04-26T07:34:29;100197.59;;;15.79;60.70
57600;BME280;43426;43.594;24.334;2023-04-26T07:36:54;100191.44;;;16.23;61.61
57600;BME280;43426;43.594;24.334;2023-04-26T07:39:20;100182.28;;;16.61;59.61
57600;BME280;43426;43.594;24.334;2023-04-26T07:41:46;100186.28;;;17.02;58.51
57600;BME280;43426;43.594;24.334;2023-04-26T07:44:11;100163.69;;;16.76;57.93
57600;BME280;43426;43.594;24.334;2023-04-26T07:46:36;100179.75;;;16.84;60.08
57600;BME280;43426;43.594;24.334;2023-04-26T07:49:02;100183.22;;;16.73;56.45
57600;BME280;43426;43.594;24.334;2023-04-26T07:51:27;100197.09;;;16.90;55.80
57600;BME280;43426;43.594;24.334;2023-04-26T07:53:53;100183.03;;;17.12;56.43
57600;BME280;43426;43.594;24.334;2023-04-26T07:56:20;100175.50;;;16.70;55.66
57600;BME280;43426;43.594;24.334;2023-04-26T07:58:45;100201.06;;;16.69;56.40
57600;BME280;43426;43.594;24.334;2023-04-26T08:01:11;100187.91;;;16.66;56.58
57600;BME280;43426;43.594;24.334;2023-04-26T08:03:36;100199.50;;;16.80;56.80
57600;BME280;43426;43.594;24.334;2023-04-26T08:06:02;100157.66;;;16.74;55.26
57600;BME280;43426;43.594;24.334;2023-04-26T08:08:27;100198.56;;;17.11;53.86
57600;BME280;43426;43.594;24.334;2023-04-26T08:10:53;100187.66;;;17.11;54.72
57600;BME280;43426;43.594;24.334;2023-04-26T08:13:19;100181.66;;;17.02;52.02
57600;BME280;43426;43.594;24.334;2023-04-26T08:15:45;100195.06;;;17.23;54.27
57600;BME280;43426;43.594;24.334;2023-04-26T08:18:11;100176.59;;;17.55;54.40
57600;BME280;43426;43.594;24.334;2023-04-26T08:20:36;100192.06;;;17.92;55.26
57600;BME280;43426;43.594;24.334;2023-04-26T08:23:02;100170.38;;;18.20;49.85
57600;BME280;43426;43.594;24.334;2023-04-26T08:25:30;100184.63;;;17.80;51.90
57600;BME280;43426;43.594;24.334;2023-04-26T08:27:55;100188.38;;;17.67;54.69
57600;BME280;43426;43.594;24.334;2023-04-26T08:30:20;100179.50;;;17.72;52.25
57600;BME280;43426;43.594;24.334;2023-04-26T08:32:46;100164.22;;;17.71;52.85
57600;BME280;43426;43.594;24.334;2023-04-26T08:35:12;100158.44;;;17.49;53.82
57600;BME280;43426;43.594;24.334;2023-04-26T08:37:37;100182.03;;;17.43;52.23
57600;BME280;43426;43.594;24.334;2023-04-26T08:40:06;100179.56;;;17.53;53.35
57600;BME280;43426;43.594;24.334;2023-04-26T08:42:38;100162.38;;;17.53;52.54
57600;BME280;43426;43.594;24.334;2023-04-26T08:45:06;100170.00;;;18.05;50.89
57600;BME280;43426;43.594;24.334;2023-04-26T08:48:03;100180.91;;;18.05;51.82
57600;BME280;43426;43.594;24.334;2023-04-26T08:50:35;100152.91;;;17.98;50.13
57600;BME280;43426;43.594;24.334;2023-04-26T08:53:03;100173.59;;;18.06;49.27
57600;BME280;43426;43.594;24.334;2023-04-26T08:55:30;100166.41;;;17.93;51.94
57600;BME280;43426;43.594;24.334;2023-04-26T08:58:01;100172.31;;;17.78;49.86
57600;BME280;43426;43.594;24.334;2023-04-26T09:00:28;100148.03;;;17.58;52.07
57600;BME280;43426;43.594;24.334;2023-04-26T09:02:53;100172.09;;;17.61;49.61
57600;BME280;43426;43.594;24.334;2023-04-26T09:05:19;100172.78;;;17.86;50.64
57600;BME280;43426;43.594;24.334;2023-04-26T09:07:54;100173.34;;;17.77;50.29
57600;BME280;43426;43.594;24.334;2023-04-26T09:10:20;100171.25;;;17.91;50.60
57600;BME280;43426;43.594;24.334;2023-04-26T09:12:48;100166.78;;;17.96;51.49
57600;BME280;43426;43.594;24.334;2023-04-26T09:15:15;100163.84;;;18.21;51.81
57600;BME280;43426;43.594;24.334;2023-04-26T09:17:40;100171.97;;;18.40;51.72
57600;BME280;43426;43.594;24.334;2023-04-26T09:20:27;100165.53;;;18.46;49.14
57600;BME280;43426;43.594;24.334;2023-04-26T09:23:06;100168.97;;;18.42;49.23
57600;BME280;43426;43.594;24.334;2023-04-26T09:25:34;100156.25;;;18.35;48.61
57600;BME280;43426;43.594;24.334;2023-04-26T09:28:00;100160.66;;;18.36;49.19
57600;BME280;43426;43.594;24.334;2023-04-26T09:30:27;100156.75;;;18.56;49.50
57600;BME280;43426;43.594;24.334;2023-04-26T09:32:59;100165.03;;;18.97;49.26
57600;BME280;43426;43.594;24.334;2023-04-26T09:35:38;100160.88;;;18.47;45.71
57600;BME280;43426;43.594;24.334;2023-04-26T09:38:05;100163.75;;;18.40;50.09
57600;BME280;43426;43.594;24.334;2023-04-26T09:40:42;100155.41;;;18.70;50.60
57600;BME280;43426;43.594;24.334;2023-04-26T09:43:18;100143.56;;;18.41;48.21
57600;BME280;43426;43.594;24.334;2023-04-26T09:45:48;100160.41;;;18.38;47.50
57600;BME280;43426;43.594;24.334;2023-04-26T09:48:19;100130.34;;;18.26;47.38
57600;BME280;43426;43.594;24.334;2023-04-26T09:50:48;100149.34;;;18.57;50.94
57600;BME280;43426;43.594;24.334;2023-04-26T09:53:44;100150.91;;;18.64;47.03
57600;BME280;43426;43.594;24.334;2023-04-26T09:56:14;100140.19;;;18.86;47.24
57600;BME280;43426;43.594;24.334;2023-04-26T10:01:09;100147.13;;;18.65;47.13
57600;BME280;43426;43.594;24.334;2023-04-26T10:03:36;100149.13;;;18.46;44.93
57600;BME280;43426;43.594;24.334;2023-04-26T10:06:03;100144.84;;;18.74;46.76
57600;BME280;43426;43.594;24.334;2023-04-26T10:08:30;100140.94;;;19.22;44.15
57600;BME280;43426;43.594;24.334;2023-04-26T10:10:56;100151.75;;;19.58;42.18
57600;BME280;43426;43.594;24.334;2023-04-26T10:13:21;100140.69;;;19.99;46.98
57600;BME280;43426;43.594;24.334;2023-04-26T10:15:47;100135.31;;;20.04;43.14
57600;BME280;43426;43.594;24.334;2023-04-26T10:18:13;100151.50;;;19.88;43.84
57600;BME280;43426;43.594;24.334;2023-04-26T10:20:40;100128.25;;;19.16;42.64
57600;BME280;43426;43.594;24.334;2023-04-26T10:23:15;100160.53;;;18.91;42.87
57600;BME280;43426;43.594;24.334;2023-04-26T10:25:44;100155.56;;;18.64;45.04
57600;BME280;43426;43.594;24.334;2023-04-26T10:28:09;100164.81;;;18.51;44.57
57600;BME280;43426;43.594;24.334;2023-04-26T10:30:56;100161.75;;;18.47;43.17
57600;BME280;43426;43.594;24.334;2023-04-26T10:33:22;100164.22;;;18.72;43.47
57600;BME280;43426;43.594;24.334;2023-04-26T10:36:07;100165.50;;;18.94;45.89
57600;BME280;43426;43.594;24.334;2023-04-26T10:38:34;100150.16;;;19.04;44.75
57600;BME280;43426;43.594;24.334;2023-04-26T10:43:58;100165.28;;;19.36;42.81
57600;BME280;43426;43.594;24.334;2023-04-26T10:46:40;100157.09;;;19.24;43.25
57600;BME280;43426;43.594;24.334;2023-04-26T10:49:18;100163.66;;;19.23;43.59
57600;BME280;43426;43.594;24.334;2023-04-26T10:52:09;100167.63;;;19.44;43.46
57600;BME280;43426;43.594;24.334;2023-04-26T10:54:57;100159.72;;;19.19;42.53
57600;BME280;43426;43.594;24.334;2023-04-26T10:57:45;100159.28;;;19.22;43.28
57600;BME280;43426;43.594;24.334;2023-04-26T11:00:17;100168.28;;;19.22;42.93
57600;BME280;43426;43.594;24.334;2023-04-26T11:05:35;100164.88;;;19.03;42.29
57600;BME280;43426;43.594;24.334;2023-04-26T11:10:39;100159.28;;;19.10;42.70
57600;BME280;43426;43.594;24.334;2023-04-26T11:13:05;100143.03;;;18.80;42.22
57600;BME280;43426;43.594;24.334;2023-04-26T11:15:31;100165.19;;;18.66;41.56
57600;BME280;43426;43.594;24.334;2023-04-26T11:17:57;100150.06;;;18.16;42.49
57600;BME280;43426;43.594;24.334;2023-04-26T11:20:28;100162.78;;;18.34;44.79
57600;BME280;43426;43.594;24.334;2023-04-26T11:22:54;100163.63;;;18.35;45.86
57600;BME280;43426;43.594;24.334;2023-04-26T11:25:19;100173.25;;;18.49;45.78
57600;BME280;43426;43.594;24.334;2023-04-26T11:27:45;100172.41;;;18.61;44.45
57600;BME280;43426;43.594;24.334;2023-04-26T11:30:11;100169.78;;;18.66;44.64
57600;BME280;43426;43.594;24.334;2023-04-26T11:32:36;100157.94;;;18.36;45.58
57600;BME280;43426;43.594;24.334;2023-04-26T11:35:02;100173.03;;;18.39;44.91
57600;BME280;43426;43.594;24.334;2023-04-26T11:37:28;100165.88;;;18.14;46.29
57600;BME280;43426;43.594;24.334;2023-04-26T11:39:54;100167.16;;;18.00;45.69
57600;BME280;43426;43.594;24.334;2023-04-26T11:42:24;100162.63;;;17.94;47.91
57600;BME280;43426;43.594;24.334;2023-04-26T11:44:50;100142.78;;;17.86;47.50
57600;BME280;43426;43.594;24.334;2023-04-26T11:47:17;100116.53;;;17.85;45.82
57600;BME280;43426;43.594;24.334;2023-04-26T11:49:45;100160.16;;;18.16;48.53
57600;BME280;43426;43.594;24.334;2023-04-26T11:52:11;100164.47;;;18.24;46.87
57600;BME280;43426;43.594;24.334;2023-04-26T11:54:37;100162.56;;;18.24;45.46
57600;BME280;43426;43.594;24.334;2023-04-26T11:57:13;100165.19;;;18.31;45.41
57600;BME280;43426;43.594;24.334;2023-04-26T11:59:39;100159.69;;;18.43;43.91
57600;BME280;43426;43.594;24.334;2023-04-26T12:02:05;100173.00;;;18.63;43.78
57600;BME280;43426;43.594;24.334;2023-04-26T12:04:31;100148.31;;;18.69;45.17
57600;BME280;43426;43.594;24.334;2023-04-26T12:06:56;100172.66;;;18.95;43.70
57600;BME280;43426;43.594;24.334;2023-04-26T12:09:23;100166.81;;;18.67;41.75
57600;BME280;43426;43.594;24.334;2023-04-26T12:12:02;100171.22;;;18.45;43.96
57600;BME280;43426;43.594;24.334;2023-04-26T12:14:39;100153.06;;;18.50;44.24
57600;BME280;43426;43.594;24.334;2023-04-26T12:17:06;100180.25;;;18.45;42.93
57600;BME280;43426;43.594;24.334;2023-04-26T12:19:35;100152.81;;;18.28;42.97
57600;BME280;43426;43.594;24.334;2023-04-26T12:22:05;100158.63;;;18.44;44.03
57600;BME280;43426;43.594;24.334;2023-04-26T12:24:31;100162.31;;;18.49;43.59
57600;BME280;43426;43.594;24.334;2023-04-26T12:27:05;100162.09;;;18.39;42.21
57600;BME280;43426;43.594;24.334;2023-04-26T12:29:31;100135.00;;;18.14;42.22
57600;BME280;43426;43.594;24.334;2023-04-26T12:32:00;100168.84;;;18.36;40.98
57600;BME280;43426;43.594;24.334;2023-04-26T12:34:25;100138.69;;;18.43;40.59
57600;BME280;43426;43.594;24.334;2023-04-26T12:36:50;100166.56;;;19.04;43.43
57600;BME280;43426;43.594;24.334;2023-04-26T12:39:16;100161.94;;;19.63;42.10
57600;BME280;43426;43.594;24.334;2023-04-26T12:41:42;100162.47;;;19.77;40.99
57600;BME280;43426;43.594;24.334;2023-04-26T12:44:08;100133.22;;;19.77;42.27
57600;BME280;43426;43.594;24.334;2023-04-26T12:46:34;100128.59;;;19.95;39.65
57600;BME280;43426;43.594;24.334;2023-04-26T12:49:00;100118.63;;;20.05;39.36
57600;BME280;43426;43.594;24.334;2023-04-26T12:51:25;100153.41;;;20.22;38.55